createdAt,value
2016-10-19T00:00:30.200Z,0
2016-10-19T00:01:45.137Z,0
2016-10-19T00:02:30.241Z,0
2016-10-19T00:03:30.316Z,0
2016-10-19T00:04:30.290Z,0
2016-10-19T00:05:30.318Z,0
2016-10-19T00:07:30.349Z,0
2016-10-19T00:08:30.371Z,0
2016-10-19T00:09:30.398Z,0
2016-10-19T00:12:45.388Z,0
2016-10-19T00:13:30.494Z,0
2016-10-19T00:14:45.425Z,0
2016-10-19T00:15:45.479Z,0
2016-10-19T00:16:30.545Z,0
2016-10-19T00:17:30.578Z,0
2016-10-19T00:18:45.507Z,0
2016-10-19T00:19:30.611Z,0
2016-10-19T00:20:30.894Z,0
2016-10-19T00:21:30.652Z,0
2016-10-19T00:22:30.683Z,0
2016-10-19T00:23:30.704Z,0
2016-10-19T00:24:30.719Z,0
2016-10-19T00:25:30.741Z,0
2016-10-19T00:26:30.763Z,0
2016-10-19T00:27:30.815Z,0
2016-10-19T00:28:45.731Z,0
2016-10-19T00:29:30.831Z,0
2016-10-19T00:30:30.857Z,0
2016-10-19T00:31:45.793Z,0
2016-10-19T00:32:30.903Z,0
2016-10-19T00:33:30.923Z,0
2016-10-19T00:34:30.944Z,0
2016-10-19T00:35:30.960Z,0
2016-10-19T00:36:46.208Z,0
2016-10-19T00:37:31.008Z,0
2016-10-19T00:39:00.873Z,0
2016-10-19T00:39:31.057Z,0
2016-10-19T00:40:31.088Z,0
2016-10-19T00:41:31.132Z,0
2016-10-19T00:42:46.041Z,0
2016-10-19T00:43:31.173Z,0
2016-10-19T00:44:31.161Z,0
2016-10-19T00:45:46.096Z,0
2016-10-19T00:47:31.219Z,0
2016-10-19T00:48:46.207Z,0
2016-10-19T00:49:31.269Z,0
2016-10-19T00:50:31.299Z,0
2016-10-19T00:51:31.314Z,0
2016-10-19T00:52:31.347Z,0
2016-10-19T00:53:31.369Z,0
2016-10-19T00:54:46.299Z,0
2016-10-19T00:55:31.413Z,0
2016-10-19T00:56:31.433Z,0
2016-10-19T00:57:31.448Z,0
2016-10-19T00:58:31.512Z,0
2016-10-19T00:59:31.483Z,0
2016-10-19T01:00:31.524Z,0
2016-10-19T01:01:31.540Z,0
2016-10-19T01:04:31.745Z,0
2016-10-19T01:05:31.618Z,0
2016-10-19T01:06:31.638Z,0
2016-10-19T01:07:31.659Z,0
2016-10-19T01:08:31.679Z,0
2016-10-19T01:09:46.620Z,0
2016-10-19T01:10:46.647Z,0
2016-10-19T01:11:31.751Z,0
2016-10-19T01:12:31.771Z,0
2016-10-19T01:13:47.020Z,0
2016-10-19T01:14:31.814Z,0
2016-10-19T01:15:46.764Z,0
2016-10-19T01:16:46.778Z,0
2016-10-19T01:17:31.884Z,0
2016-10-19T01:18:31.907Z,0
2016-10-19T01:19:31.939Z,0
2016-10-19T01:20:31.946Z,0
2016-10-19T01:21:46.885Z,0
2016-10-19T01:22:31.997Z,0
2016-10-19T01:24:32.039Z,0
2016-10-19T01:25:32.063Z,0
2016-10-19T01:26:46.992Z,0
2016-10-19T01:27:47.026Z,0
2016-10-19T01:28:32.123Z,0
2016-10-19T01:29:32.157Z,0
2016-10-19T01:30:32.419Z,0
2016-10-19T01:31:32.187Z,0
2016-10-19T01:32:47.125Z,0
2016-10-19T01:33:32.242Z,0
2016-10-19T01:34:32.260Z,0
2016-10-19T01:35:32.275Z,0
2016-10-19T01:36:32.301Z,0
2016-10-19T01:37:32.320Z,0
2016-10-19T01:38:47.260Z,0
2016-10-19T01:39:32.372Z,0
2016-10-19T01:40:47.354Z,0
2016-10-19T01:41:47.333Z,0
2016-10-19T01:42:32.428Z,0
2016-10-19T01:43:47.376Z,0
2016-10-19T01:44:32.466Z,0
2016-10-19T01:45:32.543Z,0
2016-10-19T01:46:47.435Z,0
2016-10-19T01:47:32.547Z,0
2016-10-19T01:49:47.754Z,0
2016-10-19T01:50:32.602Z,0
2016-10-19T01:51:32.624Z,0
2016-10-19T01:52:32.657Z,0
2016-10-19T01:53:32.669Z,0
2016-10-19T01:54:32.719Z,0
2016-10-19T01:55:32.715Z,0
2016-10-19T01:56:33.034Z,0
2016-10-19T01:57:32.749Z,0
2016-10-19T01:58:32.775Z,0
2016-10-19T01:59:32.805Z,0
2016-10-19T02:00:32.817Z,0
2016-10-19T02:01:32.871Z,0
2016-10-19T02:02:32.860Z,0
2016-10-19T02:03:47.810Z,0
2016-10-19T02:04:32.947Z,0
2016-10-19T02:05:47.851Z,0
2016-10-19T02:08:33.049Z,0
2016-10-19T02:10:33.052Z,0
2016-10-19T02:11:33.372Z,0
2016-10-19T02:13:48.019Z,0
2016-10-19T02:14:33.123Z,0
2016-10-19T02:15:33.188Z,0
2016-10-19T02:16:33.175Z,0
2016-10-19T02:17:33.195Z,0
2016-10-19T02:18:48.138Z,0
2016-10-19T02:19:33.240Z,0
2016-10-19T02:20:33.295Z,0
2016-10-19T02:21:33.293Z,0
2016-10-19T02:22:48.222Z,0
2016-10-19T02:23:33.328Z,0
2016-10-19T02:24:48.261Z,0
2016-10-19T02:25:33.393Z,0
2016-10-19T02:26:33.391Z,0
2016-10-19T02:27:33.419Z,0
2016-10-19T02:28:33.463Z,0
2016-10-19T02:29:48.380Z,0
2016-10-19T02:30:33.788Z,0
2016-10-19T02:31:33.497Z,0
2016-10-19T02:32:48.766Z,0
2016-10-19T02:33:33.546Z,0
2016-10-19T02:34:33.565Z,0
2016-10-19T02:35:33.589Z,0
2016-10-19T02:36:33.621Z,0
2016-10-19T02:37:33.632Z,0
2016-10-19T02:38:33.651Z,0
2016-10-19T02:39:33.713Z,0
2016-10-19T02:40:33.695Z,0
2016-10-19T02:41:33.724Z,0
2016-10-19T02:42:33.738Z,0
2016-10-19T02:43:48.782Z,0
2016-10-19T02:44:34.035Z,0
2016-10-19T02:45:48.725Z,0
2016-10-19T02:46:33.831Z,0
2016-10-19T02:47:33.851Z,0
2016-10-19T02:48:33.873Z,0
2016-10-19T02:49:33.894Z,0
2016-10-19T02:50:48.829Z,0
2016-10-19T02:51:33.952Z,0
2016-10-19T02:52:34.210Z,0
2016-10-19T02:53:49.220Z,0
2016-10-19T02:54:48.933Z,0
2016-10-19T02:55:34.326Z,0
2016-10-19T02:56:34.343Z,0
2016-10-19T02:57:34.066Z,0
2016-10-19T02:58:49.009Z,0
2016-10-19T02:59:34.117Z,0
2016-10-19T03:01:49.085Z,0
2016-10-19T03:02:34.173Z,0
2016-10-19T03:03:34.198Z,0
2016-10-19T03:04:49.140Z,0
2016-10-19T03:05:34.238Z,0
2016-10-19T03:06:34.269Z,0
2016-10-19T03:07:34.299Z,0
2016-10-19T03:08:34.320Z,0
2016-10-19T03:09:34.337Z,0
2016-10-19T03:10:49.272Z,0
2016-10-19T03:11:34.383Z,0
2016-10-19T03:12:34.399Z,0
2016-10-19T03:13:34.460Z,0
2016-10-19T03:14:34.438Z,0
2016-10-19T03:15:34.469Z,0
2016-10-19T03:16:49.402Z,0
2016-10-19T03:17:49.432Z,0
2016-10-19T03:18:34.523Z,0
2016-10-19T03:19:34.564Z,0
2016-10-19T03:21:34.671Z,0
2016-10-19T03:22:49.539Z,0
2016-10-19T03:23:34.642Z,0
2016-10-19T03:24:49.580Z,0
2016-10-19T03:25:34.934Z,0
2016-10-19T03:26:34.750Z,0
2016-10-19T03:27:49.648Z,0
2016-10-19T03:28:34.754Z,0
2016-10-19T03:29:34.778Z,0
2016-10-19T03:31:34.818Z,0
2016-10-19T03:32:49.767Z,0
2016-10-19T03:33:34.857Z,0
2016-10-19T03:34:49.805Z,0
2016-10-19T03:35:49.821Z,0
2016-10-19T03:37:49.901Z,0
2016-10-19T03:38:34.972Z,0
2016-10-19T03:39:34.993Z,0
2016-10-19T03:41:49.949Z,0
2016-10-19T03:42:35.068Z,0
2016-10-19T03:43:35.083Z,0
2016-10-19T03:44:50.025Z,0
2016-10-19T03:45:50.037Z,0
2016-10-19T03:46:35.145Z,0
2016-10-19T03:47:35.207Z,0
2016-10-19T03:49:05.031Z,0
2016-10-19T03:49:50.137Z,0
2016-10-19T03:50:35.232Z,0
2016-10-19T03:51:35.250Z,0
2016-10-19T03:52:35.537Z,0
2016-10-19T03:53:35.305Z,0
2016-10-19T03:54:35.323Z,0
2016-10-19T03:55:35.365Z,0
2016-10-19T03:56:35.359Z,0
2016-10-19T03:58:05.221Z,0
2016-10-19T03:58:35.408Z,0
2016-10-19T03:59:35.432Z,0
2016-10-19T04:00:35.445Z,0
2016-10-19T04:01:50.639Z,0
2016-10-19T04:03:35.551Z,0
2016-10-19T04:04:50.453Z,0
2016-10-19T04:06:35.588Z,0
2016-10-19T04:08:50.542Z,0
2016-10-19T04:09:35.652Z,0
2016-10-19T04:10:50.591Z,0
2016-10-19T04:11:35.689Z,0
2016-10-19T04:12:50.639Z,0
2016-10-19T04:13:50.652Z,0
2016-10-19T04:14:35.753Z,0
2016-10-19T04:15:35.783Z,0
2016-10-19T04:16:35.801Z,0
2016-10-19T04:17:35.836Z,0
2016-10-19T04:18:50.765Z,0
2016-10-19T04:19:50.788Z,0
2016-10-19T04:20:50.807Z,0
2016-10-19T04:21:35.953Z,0
2016-10-19T04:22:50.847Z,0
2016-10-19T04:23:35.962Z,0
2016-10-19T04:24:35.969Z,0
2016-10-19T04:25:36.001Z,0
2016-10-19T04:26:36.017Z,0
2016-10-19T04:27:36.038Z,0
2016-10-19T04:28:36.073Z,0
2016-10-19T04:29:36.076Z,0
2016-10-19T04:30:36.143Z,0
2016-10-19T04:31:36.129Z,0
2016-10-19T04:33:36.173Z,0
2016-10-19T04:34:36.195Z,0
2016-10-19T04:35:36.215Z,0
2016-10-19T04:36:51.152Z,0
2016-10-19T04:37:51.183Z,0
2016-10-19T04:38:36.578Z,0
2016-10-19T04:39:36.302Z,0
2016-10-19T04:40:36.323Z,0
2016-10-19T04:41:36.346Z,0
2016-10-19T04:43:36.395Z,0
2016-10-19T04:44:51.327Z,0
2016-10-19T04:46:36.492Z,0
2016-10-19T04:47:36.481Z,0
2016-10-19T04:48:51.413Z,0
2016-10-19T04:49:36.523Z,0
2016-10-19T04:50:36.548Z,0
2016-10-19T04:51:51.485Z,0
2016-10-19T04:52:36.583Z,0
2016-10-19T04:53:36.654Z,0
2016-10-19T04:54:36.628Z,0
2016-10-19T04:55:36.652Z,0
2016-10-19T04:56:51.585Z,0
2016-10-19T04:57:36.697Z,0
2016-10-19T04:58:36.712Z,0
2016-10-19T04:59:51.655Z,0
2016-10-19T05:00:51.681Z,0
2016-10-19T05:01:36.799Z,0
2016-10-19T05:02:36.815Z,0
2016-10-19T05:03:36.853Z,0
2016-10-19T05:04:36.846Z,0
2016-10-19T05:05:36.873Z,0
2016-10-19T05:06:51.817Z,0
2016-10-19T05:07:36.921Z,0
2016-10-19T05:08:51.849Z,0
2016-10-19T05:09:36.947Z,0
2016-10-19T05:10:36.990Z,0
2016-10-19T05:11:51.920Z,0
2016-10-19T05:12:37.062Z,0
2016-10-19T05:14:37.367Z,0
2016-10-19T05:15:37.085Z,0
2016-10-19T05:16:52.024Z,0
2016-10-19T05:17:37.132Z,0
2016-10-19T05:18:52.063Z,0
2016-10-19T05:20:07.004Z,0
2016-10-19T05:21:37.220Z,0
2016-10-19T05:22:37.267Z,0
2016-10-19T05:23:52.175Z,0
2016-10-19T05:24:37.277Z,0
2016-10-19T05:25:37.307Z,0
2016-10-19T05:26:37.358Z,0
2016-10-19T05:27:37.353Z,0
2016-10-19T05:29:07.204Z,0
2016-10-19T05:29:37.687Z,0
2016-10-19T05:30:37.417Z,0
2016-10-19T05:31:52.356Z,0
2016-10-19T05:32:37.465Z,0
2016-10-19T05:33:52.392Z,0
2016-10-19T05:34:37.499Z,0
2016-10-19T05:35:37.527Z,0
2016-10-19T05:36:37.549Z,0
2016-10-19T05:37:37.562Z,0
2016-10-19T05:38:37.596Z,0
2016-10-19T05:39:52.534Z,0
2016-10-19T05:40:37.645Z,0
2016-10-19T05:41:37.687Z,0
2016-10-19T05:42:37.675Z,0
2016-10-19T05:43:37.696Z,0
2016-10-19T05:44:37.721Z,0
2016-10-19T05:45:52.660Z,0
2016-10-19T05:46:37.760Z,0
2016-10-19T05:47:37.780Z,0
2016-10-19T05:48:37.803Z,0
2016-10-19T05:49:37.821Z,0
2016-10-19T05:50:52.760Z,0
2016-10-19T05:51:37.871Z,0
2016-10-19T05:53:52.823Z,0
2016-10-19T05:54:52.856Z,0
2016-10-19T05:55:52.874Z,0
2016-10-19T05:56:37.972Z,0
2016-10-19T05:57:38.046Z,0
2016-10-19T05:58:38.009Z,0
2016-10-19T05:59:38.036Z,0
2016-10-19T06:00:38.070Z,0
2016-10-19T06:01:38.084Z,0
2016-10-19T06:02:38.105Z,0
2016-10-19T06:03:38.142Z,0
2016-10-19T06:04:38.161Z,0
2016-10-19T06:05:38.169Z,0
2016-10-19T06:06:53.117Z,0
2016-10-19T06:07:38.218Z,0
2016-10-19T06:08:38.240Z,0
2016-10-19T06:09:38.254Z,0
2016-10-19T06:10:38.280Z,0
2016-10-19T06:11:53.225Z,0
2016-10-19T06:12:38.322Z,0
2016-10-19T06:13:39.352Z,0
2016-10-19T06:14:38.366Z,0
2016-10-19T06:15:38.396Z,0
2016-10-19T06:16:38.426Z,0
2016-10-19T06:17:53.351Z,0
2016-10-19T06:18:53.374Z,0
2016-10-19T06:19:38.471Z,0
2016-10-19T06:20:38.760Z,0
2016-10-19T06:22:08.353Z,0
2016-10-19T06:22:38.539Z,0
2016-10-19T06:23:38.565Z,0
2016-10-19T06:24:38.598Z,0
2016-10-19T06:25:38.604Z,0
2016-10-19T06:26:53.554Z,0
2016-10-19T06:27:38.658Z,0
2016-10-19T06:28:53.596Z,0
2016-10-19T06:29:38.689Z,0
2016-10-19T06:30:38.719Z,0
2016-10-19T06:31:38.738Z,0
2016-10-19T06:32:38.762Z,0
2016-10-19T06:33:53.702Z,0
2016-10-19T06:34:38.808Z,0
2016-10-19T06:35:38.822Z,0
2016-10-19T06:36:38.850Z,0
2016-10-19T06:37:53.785Z,0
2016-10-19T06:38:38.891Z,0
2016-10-19T06:39:38.919Z,0
2016-10-19T06:40:38.933Z,0
2016-10-19T06:41:38.962Z,0
2016-10-19T06:42:38.978Z,0
2016-10-19T06:43:38.991Z,0
2016-10-19T06:44:39.329Z,0
2016-10-19T06:45:39.051Z,0
2016-10-19T06:46:39.063Z,0
2016-10-19T06:47:54.000Z,5
2016-10-19T06:48:39.362Z,5
2016-10-19T06:49:54.046Z,5
2016-10-19T06:50:39.150Z,5
2016-10-19T06:51:39.176Z,5
2016-10-19T06:53:39.218Z,5
2016-10-19T06:54:39.236Z,5
2016-10-19T06:55:54.217Z,10
2016-10-19T06:56:39.282Z,10
2016-10-19T06:57:39.306Z,10
2016-10-19T06:58:54.547Z,15
2016-10-19T06:59:39.346Z,15
2016-10-19T07:00:39.402Z,15
2016-10-19T07:01:39.393Z,15
2016-10-19T07:02:39.416Z,15
2016-10-19T07:03:39.441Z,20
2016-10-19T07:04:54.372Z,20
2016-10-19T07:05:39.476Z,20
2016-10-19T07:06:39.502Z,20
2016-10-19T07:07:54.474Z,20
2016-10-19T07:08:39.531Z,20
2016-10-19T07:09:39.563Z,20
2016-10-19T07:10:54.492Z,20
2016-10-19T07:12:39.625Z,20
2016-10-19T07:14:54.588Z,20
2016-10-19T07:15:39.695Z,20
2016-10-19T07:16:39.748Z,20
2016-10-19T07:17:39.732Z,20
2016-10-19T07:18:54.671Z,20
2016-10-19T07:19:39.777Z,20
2016-10-19T07:20:39.789Z,20
2016-10-19T07:21:39.868Z,20
2016-10-19T07:22:54.764Z,15
2016-10-19T07:23:40.110Z,15
2016-10-19T07:24:40.197Z,20
2016-10-19T07:25:39.919Z,20
2016-10-19T07:26:54.844Z,20
2016-10-19T07:27:39.950Z,20
2016-10-19T07:28:39.978Z,20
2016-10-19T07:29:39.993Z,20
2016-10-19T07:30:54.932Z,20
2016-10-19T07:32:54.979Z,20
2016-10-19T07:33:40.080Z,20
2016-10-19T07:34:40.103Z,25
2016-10-19T07:35:40.460Z,25
2016-10-19T07:36:40.145Z,25
2016-10-19T07:38:40.191Z,25
2016-10-19T07:39:40.208Z,25
2016-10-19T07:41:40.256Z,30
2016-10-19T07:42:40.274Z,30
2016-10-19T07:43:40.299Z,30
2016-10-19T07:44:40.320Z,30
2016-10-19T07:45:40.705Z,30
2016-10-19T07:47:10.197Z,30
2016-10-19T07:47:40.374Z,30
2016-10-19T07:48:40.397Z,30
2016-10-19T07:49:40.431Z,30
2016-10-19T07:50:55.363Z,30
2016-10-19T07:51:40.486Z,30
2016-10-19T07:52:40.491Z,25
2016-10-19T07:53:40.509Z,25
2016-10-19T07:54:40.536Z,25
2016-10-19T07:55:40.555Z,25
2016-10-19T07:56:40.580Z,25
2016-10-19T07:57:55.510Z,20
2016-10-19T07:58:40.613Z,20
2016-10-19T08:00:40.656Z,20
2016-10-19T08:01:55.633Z,20
2016-10-19T08:02:40.701Z,20
2016-10-19T08:04:40.744Z,25
2016-10-19T08:05:41.021Z,30
2016-10-19T08:06:40.789Z,30
2016-10-19T08:07:40.805Z,30
2016-10-19T08:08:40.834Z,30
2016-10-19T08:09:41.112Z,30
2016-10-19T08:10:40.884Z,30
2016-10-19T08:11:41.215Z,30
2016-10-19T08:12:40.922Z,30
2016-10-19T08:13:41.190Z,25
2016-10-19T08:14:40.960Z,25
2016-10-19T08:15:41.018Z,25
2016-10-19T08:16:40.993Z,25
2016-10-19T08:17:41.029Z,25
2016-10-19T08:18:41.044Z,25
2016-10-19T08:19:41.068Z,25
2016-10-19T08:20:56.012Z,25
2016-10-19T08:21:41.109Z,30
2016-10-19T08:22:41.387Z,30
2016-10-19T08:23:41.147Z,30
2016-10-19T08:24:41.170Z,30
2016-10-19T08:25:41.211Z,30
2016-10-19T08:26:41.212Z,35
2016-10-19T08:27:41.246Z,35
2016-10-19T08:28:56.217Z,35
2016-10-19T08:29:41.282Z,40
2016-10-19T08:30:41.309Z,40
2016-10-19T08:31:41.329Z,40
2016-10-19T08:32:41.382Z,45
2016-10-19T08:33:56.289Z,45
2016-10-19T08:34:41.420Z,45
2016-10-19T08:35:41.408Z,45
2016-10-19T08:36:56.352Z,45
2016-10-19T08:37:41.753Z,45
2016-10-19T08:38:41.471Z,40
2016-10-19T08:39:56.463Z,40
2016-10-19T08:41:41.577Z,35
2016-10-19T08:42:56.474Z,35
2016-10-19T08:43:42.031Z,35
2016-10-19T08:44:41.599Z,35
2016-10-19T08:45:41.631Z,35
2016-10-19T08:46:41.652Z,35
2016-10-19T08:48:11.543Z,40
2016-10-19T08:48:41.680Z,40
2016-10-19T08:49:56.632Z,40
2016-10-19T08:50:41.733Z,45
2016-10-19T08:51:41.758Z,45
2016-10-19T08:52:56.697Z,45
2016-10-19T08:53:41.795Z,50
2016-10-19T08:54:56.740Z,50
2016-10-19T08:55:41.835Z,50
2016-10-19T08:56:41.856Z,45
2016-10-19T08:58:42.154Z,45
2016-10-19T09:00:41.953Z,50
2016-10-19T09:02:56.915Z,50
2016-10-19T09:03:42.025Z,50
2016-10-19T09:04:42.031Z,50
2016-10-19T09:05:56.968Z,50
2016-10-19T09:06:42.091Z,50
2016-10-19T09:07:42.101Z,50
2016-10-19T09:08:42.130Z,45
2016-10-19T09:09:42.134Z,55
2016-10-19T09:10:42.365Z,60
2016-10-19T09:11:42.187Z,75
2016-10-19T09:12:42.208Z,85
2016-10-19T09:13:42.229Z,90
2016-10-19T09:14:42.262Z,90
2016-10-19T09:15:42.265Z,90
2016-10-19T09:16:42.297Z,90
2016-10-19T09:17:42.309Z,95
2016-10-19T09:18:42.340Z,95
2016-10-19T09:19:42.354Z,95
2016-10-19T09:20:57.301Z,95
2016-10-19T09:22:42.677Z,95
2016-10-19T09:23:42.462Z,95
2016-10-19T09:25:12.303Z,95
2016-10-19T09:25:57.412Z,95
2016-10-19T09:27:12.349Z,95
2016-10-19T09:27:42.832Z,95
2016-10-19T09:28:57.793Z,100
2016-10-19T09:29:42.589Z,100
2016-10-19T09:30:42.640Z,105
2016-10-19T09:31:42.623Z,110
2016-10-19T09:32:57.563Z,110
2016-10-19T09:33:42.721Z,115
2016-10-19T09:34:42.685Z,120
2016-10-19T09:35:57.640Z,130
2016-10-19T09:36:57.657Z,135
2016-10-19T09:37:42.757Z,140
2016-10-19T09:38:42.793Z,150
2016-10-19T09:39:42.808Z,160
2016-10-19T09:40:57.747Z,175
2016-10-19T09:41:42.853Z,170
2016-10-19T09:42:57.829Z,185
2016-10-19T09:43:42.889Z,190
2016-10-19T09:44:43.166Z,190
2016-10-19T09:45:42.935Z,200
2016-10-19T09:46:42.957Z,190
2016-10-19T09:47:42.985Z,190
2016-10-19T09:48:42.996Z,190
2016-10-19T09:49:43.036Z,190
2016-10-19T09:50:43.051Z,195
2016-10-19T09:51:43.082Z,190
2016-10-19T09:52:43.100Z,185
2016-10-19T09:53:43.420Z,180
2016-10-19T09:54:43.175Z,180
2016-10-19T09:55:58.082Z,175
2016-10-19T09:56:43.193Z,175
2016-10-19T09:57:43.224Z,175
2016-10-19T09:58:43.248Z,175
2016-10-19T09:59:58.180Z,165
2016-10-19T10:00:43.600Z,165
2016-10-19T10:01:43.307Z,165
2016-10-19T10:02:43.923Z,170
2016-10-19T10:03:58.268Z,170
2016-10-19T10:04:43.381Z,165
2016-10-19T10:05:43.400Z,165
2016-10-19T10:06:43.425Z,165
2016-10-19T10:07:43.449Z,160
2016-10-19T10:08:58.389Z,160
2016-10-19T10:09:43.480Z,150
2016-10-19T10:10:43.526Z,150
2016-10-19T10:11:43.541Z,155
2016-10-19T10:12:43.564Z,155
2016-10-19T10:13:43.577Z,150
2016-10-19T10:14:43.608Z,140
2016-10-19T10:15:43.626Z,135
2016-10-19T10:16:43.700Z,130
2016-10-19T10:17:43.692Z,130
2016-10-19T10:18:43.711Z,130
2016-10-19T10:20:43.751Z,125
2016-10-19T10:21:58.698Z,130
2016-10-19T10:22:43.800Z,130
2016-10-19T10:23:43.819Z,130
2016-10-19T10:24:58.760Z,130
2016-10-19T10:25:43.869Z,135
2016-10-19T10:26:43.923Z,140
2016-10-19T10:27:43.907Z,145
2016-10-19T10:28:43.937Z,145
2016-10-19T10:29:43.963Z,145
2016-10-19T10:30:59.202Z,155
2016-10-19T10:31:44.015Z,155
2016-10-19T10:33:44.049Z,160
2016-10-19T10:34:44.082Z,155
2016-10-19T10:35:44.107Z,155
2016-10-19T10:36:44.123Z,150
2016-10-19T10:37:44.152Z,150
2016-10-19T10:38:44.426Z,150
2016-10-19T10:39:44.245Z,145
2016-10-19T10:40:59.148Z,140
2016-10-19T10:41:44.253Z,140
2016-10-19T10:42:44.268Z,140
2016-10-19T10:43:44.324Z,130
2016-10-19T10:44:44.313Z,130
2016-10-19T10:45:44.344Z,125
2016-10-19T10:46:44.359Z,125
2016-10-19T10:47:44.382Z,130
2016-10-19T10:48:44.402Z,130
2016-10-19T10:49:44.431Z,130
2016-10-19T10:50:44.464Z,125
2016-10-19T10:51:44.484Z,120
2016-10-19T10:52:44.503Z,120
2016-10-19T10:53:59.436Z,115
2016-10-19T10:54:44.542Z,115
2016-10-19T10:55:44.569Z,115
2016-10-19T10:56:59.513Z,115
2016-10-19T10:57:44.610Z,115
2016-10-19T10:58:44.647Z,110
2016-10-19T10:59:44.667Z,105
2016-10-19T11:00:44.692Z,105
2016-10-19T11:01:44.715Z,100
2016-10-19T11:02:44.733Z,105
2016-10-19T11:03:44.760Z,110
2016-10-19T11:04:44.790Z,120
2016-10-19T11:05:44.810Z,130
2016-10-19T11:06:44.834Z,130
2016-10-19T11:07:44.863Z,130
2016-10-19T11:09:44.903Z,125
2016-10-19T11:11:59.865Z,130
2016-10-19T11:12:59.898Z,125
2016-10-19T11:13:44.995Z,130
2016-10-19T11:14:45.021Z,135
2016-10-19T11:15:59.965Z,135
2016-10-19T11:16:59.989Z,140
2016-10-19T11:17:45.088Z,140
2016-10-19T11:19:00.041Z,140
2016-10-19T11:20:00.063Z,140
2016-10-19T11:20:45.464Z,145
2016-10-19T11:21:45.189Z,140
2016-10-19T11:22:45.210Z,135
2016-10-19T11:24:00.152Z,135
2016-10-19T11:24:45.278Z,130
2016-10-19T11:25:45.446Z,125
2016-10-19T11:26:45.308Z,125
2016-10-19T11:27:45.333Z,120
2016-10-19T11:28:45.385Z,115
2016-10-19T11:29:45.393Z,110
2016-10-19T11:30:45.411Z,100
2016-10-19T11:31:45.429Z,95
2016-10-19T11:32:45.449Z,90
2016-10-19T11:33:45.478Z,85
2016-10-19T11:34:45.493Z,80
2016-10-19T11:36:00.491Z,65
2016-10-19T11:36:45.547Z,60
2016-10-19T11:37:45.815Z,55
2016-10-19T11:38:45.596Z,55
2016-10-19T11:39:45.619Z,55
2016-10-19T11:40:45.647Z,60
2016-10-19T11:41:45.663Z,65
2016-10-19T11:42:45.684Z,65
2016-10-19T11:44:00.627Z,70
2016-10-19T11:44:45.739Z,70
2016-10-19T11:45:45.757Z,70
2016-10-19T11:46:45.776Z,75
2016-10-19T11:47:45.812Z,75
2016-10-19T11:49:00.751Z,80
2016-10-19T11:49:45.893Z,85
2016-10-19T11:51:00.798Z,85
2016-10-19T11:51:45.892Z,85
2016-10-19T11:52:45.919Z,85
2016-10-19T11:53:45.955Z,85
2016-10-19T11:54:46.001Z,80
2016-10-19T11:55:46.029Z,80
2016-10-19T11:56:46.259Z,80
2016-10-19T11:57:46.077Z,75
2016-10-19T11:58:46.059Z,70
2016-10-19T12:00:01.002Z,70
2016-10-19T12:00:46.102Z,70
2016-10-19T12:01:46.131Z,70
2016-10-19T12:02:46.161Z,70
2016-10-19T12:04:01.404Z,70
2016-10-19T12:04:46.204Z,70
2016-10-19T12:05:46.234Z,70
2016-10-19T12:06:46.254Z,70
2016-10-19T12:07:46.275Z,70
2016-10-19T12:08:46.295Z,75
2016-10-19T12:09:46.323Z,80
2016-10-19T12:10:46.383Z,85
2016-10-19T12:11:46.366Z,85
2016-10-19T12:12:46.380Z,90
2016-10-19T12:13:46.412Z,95
2016-10-19T12:14:46.429Z,95
2016-10-19T12:16:01.377Z,100
2016-10-19T12:16:46.476Z,100
2016-10-19T12:17:46.754Z,100
2016-10-19T12:19:46.589Z,100
2016-10-19T12:20:46.567Z,100
2016-10-19T12:21:46.598Z,95
2016-10-19T12:22:46.630Z,95
2016-10-19T12:23:46.651Z,95
2016-10-19T12:24:46.664Z,95
2016-10-19T12:25:46.701Z,90
2016-10-19T12:27:01.633Z,90
2016-10-19T12:28:46.770Z,85
2016-10-19T12:29:46.786Z,80
2016-10-19T12:30:46.808Z,75
2016-10-19T12:32:01.755Z,70
2016-10-19T12:32:46.890Z,65
2016-10-19T12:33:46.882Z,60
2016-10-19T12:34:46.903Z,60
2016-10-19T12:37:01.922Z,50
2016-10-19T12:39:16.839Z,50
2016-10-19T12:39:47.028Z,50
2016-10-19T12:40:47.072Z,45
2016-10-19T12:41:47.087Z,45
2016-10-19T12:42:47.093Z,40
2016-10-19T12:44:02.035Z,45
2016-10-19T12:44:47.151Z,45
2016-10-19T12:45:47.163Z,45
2016-10-19T12:47:02.117Z,50
2016-10-19T12:47:47.220Z,55
2016-10-19T12:48:47.249Z,60
2016-10-19T12:49:47.261Z,90
2016-10-19T12:51:47.316Z,85
2016-10-19T12:52:47.338Z,85
2016-10-19T12:53:47.369Z,95
2016-10-19T12:55:02.301Z,105
2016-10-19T12:55:47.410Z,110
2016-10-19T12:56:47.428Z,115
2016-10-19T12:57:47.453Z,115
2016-10-19T12:58:47.481Z,115
2016-10-19T12:59:47.492Z,110
2016-10-19T13:00:47.513Z,100
2016-10-19T13:01:47.548Z,100
2016-10-19T13:02:47.571Z,90
2016-10-19T13:03:47.590Z,80
2016-10-19T13:05:02.537Z,70
2016-10-19T13:05:47.636Z,70
2016-10-19T13:06:47.923Z,65
2016-10-19T13:07:47.691Z,65
2016-10-19T13:09:02.627Z,65
2016-10-19T13:09:47.749Z,65
2016-10-19T13:10:48.051Z,60
2016-10-19T13:12:02.702Z,65
2016-10-19T13:12:47.805Z,60
2016-10-19T13:14:02.745Z,60
2016-10-19T13:14:48.215Z,60
2016-10-19T13:15:47.874Z,55
2016-10-19T13:16:47.905Z,55
2016-10-19T13:17:47.926Z,50
2016-10-19T13:19:02.874Z,50
2016-10-19T13:19:47.967Z,45
2016-10-19T13:20:48.023Z,45
2016-10-19T13:21:48.016Z,40
2016-10-19T13:23:02.959Z,30
2016-10-19T13:23:48.063Z,30
2016-10-19T13:24:48.085Z,25
2016-10-19T13:26:03.024Z,25
2016-10-19T13:26:48.202Z,25
2016-10-19T13:27:48.161Z,20
2016-10-19T13:28:48.519Z,20
2016-10-19T13:29:48.201Z,25
2016-10-19T13:30:48.221Z,30
2016-10-19T13:31:48.252Z,30
2016-10-19T13:32:48.565Z,40
2016-10-19T13:35:03.242Z,65
2016-10-19T13:35:48.338Z,75
2016-10-19T13:36:48.372Z,85
2016-10-19T13:37:48.383Z,85
2016-10-19T13:38:48.415Z,90
2016-10-19T13:40:48.513Z,95
2016-10-19T13:41:48.474Z,95
2016-10-19T13:43:18.338Z,95
2016-10-19T13:43:48.527Z,95
2016-10-19T13:44:48.552Z,85
2016-10-19T13:45:48.579Z,90
2016-10-19T13:46:48.596Z,90
2016-10-19T13:48:03.537Z,95
2016-10-19T13:49:03.561Z,100
2016-10-19T13:49:48.677Z,100
2016-10-19T13:51:48.715Z,100
2016-10-19T13:53:03.655Z,95
2016-10-19T13:53:48.750Z,95
2016-10-19T13:54:48.777Z,95
2016-10-19T13:56:18.839Z,90
2016-10-19T13:56:48.822Z,100
2016-10-19T13:57:48.887Z,100
2016-10-19T13:58:49.266Z,105
2016-10-19T14:00:18.727Z,100
2016-10-19T14:01:03.832Z,105
2016-10-19T14:01:48.941Z,110
2016-10-19T14:03:48.988Z,105
2016-10-19T14:04:49.011Z,105
2016-10-19T14:05:49.028Z,100
2016-10-19T14:07:04.274Z,100
2016-10-19T14:07:49.076Z,100
2016-10-19T14:08:49.103Z,95
2016-10-19T14:09:49.119Z,75
2016-10-19T14:10:49.147Z,65
2016-10-19T14:11:49.173Z,65
2016-10-19T14:12:49.195Z,65
2016-10-19T14:13:49.257Z,65
2016-10-19T14:14:49.277Z,65
2016-10-19T14:15:49.269Z,60
2016-10-19T14:16:49.284Z,60
2016-10-19T14:18:04.569Z,60
2016-10-19T14:19:04.292Z,60
2016-10-19T14:19:49.357Z,60
2016-10-19T14:20:49.375Z,60
2016-10-19T14:22:04.322Z,60
2016-10-19T14:22:49.426Z,60
2016-10-19T14:23:49.481Z,60
2016-10-19T14:24:49.464Z,60
2016-10-19T14:26:04.406Z,70
2016-10-19T14:26:49.516Z,80
2016-10-19T14:27:49.533Z,65
2016-10-19T14:29:49.581Z,75
2016-10-19T14:30:49.608Z,85
2016-10-19T14:33:04.674Z,65
2016-10-19T14:33:49.940Z,75
2016-10-19T14:36:49.742Z,60
2016-10-19T14:37:49.776Z,60
2016-10-19T14:38:49.785Z,55
2016-10-19T14:39:49.810Z,55
2016-10-19T14:40:49.826Z,55
2016-10-19T14:41:49.897Z,55
2016-10-19T14:42:49.885Z,55
2016-10-19T14:43:49.935Z,55
2016-10-19T14:44:49.961Z,55
2016-10-19T14:45:49.959Z,55
2016-10-19T14:46:50.005Z,55
2016-10-19T14:47:49.988Z,70
2016-10-19T14:48:50.032Z,75
2016-10-19T14:49:50.291Z,55
2016-10-19T14:51:04.988Z,60
2016-10-19T14:51:50.137Z,60
2016-10-19T14:52:50.111Z,55
2016-10-19T14:54:05.086Z,55
2016-10-19T14:54:50.155Z,55
2016-10-19T14:55:50.175Z,60
2016-10-19T14:56:50.187Z,70
2016-10-19T14:58:05.138Z,70
2016-10-19T14:58:50.545Z,65
2016-10-19T14:59:50.258Z,60
2016-10-19T15:00:50.291Z,55
2016-10-19T15:01:50.315Z,60
2016-10-19T15:02:50.375Z,55
2016-10-19T15:03:50.358Z,55
2016-10-19T15:05:50.444Z,50
2016-10-19T15:06:50.529Z,50
2016-10-19T15:07:50.494Z,50
2016-10-19T15:08:50.474Z,45
2016-10-19T15:10:05.409Z,45
2016-10-19T15:10:50.544Z,45
2016-10-19T15:11:50.532Z,40
2016-10-19T15:12:50.558Z,40
2016-10-19T15:13:50.574Z,40
2016-10-19T15:14:50.614Z,35
2016-10-19T15:15:50.669Z,35
2016-10-19T15:17:50.668Z,35
2016-10-19T15:18:50.699Z,35
2016-10-19T15:19:50.723Z,30
2016-10-19T15:20:50.847Z,30
2016-10-19T15:22:50.789Z,30
2016-10-19T15:23:50.839Z,30